sensor_id;sensor_type;location;lat;lon;timestamp;temperature;humidity
46890;DHT22;32625;51.080;16.970;2023-04-24T00:02:04;12.60;99.90
46890;DHT22;32625;51.080;16.970;2023-04-24T00:04:33;12.60;99.90
46890;DHT22;32625;51.080;16.970;2023-04-24T00:07:01;12.60;99.90
46890;DHT22;32625;51.080;16.970;2023-04-24T00:09:28;12.60;99.90
46890;DHT22;32625;51.080;16.970;2023-04-24T00:11:55;12.60;99.90
46890;DHT22;32625;51.080;16.970;2023-04-24T00:14:22;12.70;99.90
46890;DHT22;32625;51.080;16.970;2023-04-24T00:16:50;12.70;99.90
46890;DHT22;32625;51.080;16.970;2023-04-24T00:19:17;12.70;99.90
46890;DHT22;32625;51.080;16.970;2023-04-24T00:21:48;12.70;99.90
46890;DHT22;32625;51.080;16.970;2023-04-24T00:24:18;12.70;99.90
46890;DHT22;32625;51.080;16.970;2023-04-24T00:26:45;12.70;99.90
46890;DHT22;32625;51.080;16.970;2023-04-24T00:29:12;12.70;99.90
46890;DHT22;32625;51.080;16.970;2023-04-24T00:31:40;12.70;99.90
46890;DHT22;32625;51.080;16.970;2023-04-24T00:34:07;12.70;99.90
46890;DHT22;32625;51.080;16.970;2023-04-24T00:36:35;12.70;99.90
46890;DHT22;32625;51.080;16.970;2023-04-24T00:39:02;12.70;99.90
46890;DHT22;32625;51.080;16.970;2023-04-24T00:41:29;12.70;99.90
46890;DHT22;32625;51.080;16.970;2023-04-24T00:43:57;12.70;99.90
46890;DHT22;32625;51.080;16.970;2023-04-24T00:46:25;12.60;99.90
46890;DHT22;32625;51.080;16.970;2023-04-24T00:48:52;12.70;99.90
46890;DHT22;32625;51.080;16.970;2023-04-24T00:51:20;12.60;99.90
46890;DHT22;32625;51.080;16.970;2023-04-24T00:53:48;12.70;99.90
46890;DHT22;32625;51.080;16.970;2023-04-24T00:56:15;12.60;99.90
46890;DHT22;32625;51.080;16.970;2023-04-24T00:58:43;12.60;99.90
46890;DHT22;32625;51.080;16.970;2023-04-24T01:01:11;12.60;99.90
46890;DHT22;32625;51.080;16.970;2023-04-24T01:03:38;12.60;99.90
46890;DHT22;32625;51.080;16.970;2023-04-24T01:06:08;12.50;99.90
46890;DHT22;32625;51.080;16.970;2023-04-24T01:08:36;12.50;99.90
46890;DHT22;32625;51.080;16.970;2023-04-24T01:11:04;12.50;99.90
46890;DHT22;32625;51.080;16.970;2023-04-24T01:13:33;12.50;99.90
46890;DHT22;32625;51.080;16.970;2023-04-24T01:16:00;12.60;99.90
46890;DHT22;32625;51.080;16.970;2023-04-24T01:18:28;12.50;99.90
46890;DHT22;32625;51.080;16.970;2023-04-24T01:20:58;12.50;99.90
46890;DHT22;32625;51.080;16.970;2023-04-24T01:23:26;12.50;99.90
46890;DHT22;32625;51.080;16.970;2023-04-24T01:25:53;12.50;99.90
46890;DHT22;32625;51.080;16.970;2023-04-24T01:28:21;12.50;99.90
46890;DHT22;32625;51.080;16.970;2023-04-24T01:30:49;12.50;99.90
46890;DHT22;32625;51.080;16.970;2023-04-24T01:33:16;12.50;99.90
46890;DHT22;32625;51.080;16.970;2023-04-24T01:35:44;12.50;99.90
46890;DHT22;32625;51.080;16.970;2023-04-24T01:38:11;12.50;99.90
46890;DHT22;32625;51.080;16.970;2023-04-24T01:40:38;12.60;99.90
46890;DHT22;32625;51.080;16.970;2023-04-24T01:43:06;12.60;99.90
46890;DHT22;32625;51.080;16.970;2023-04-24T01:45:33;12.60;99.90
46890;DHT22;32625;51.080;16.970;2023-04-24T01:48:03;12.50;99.90
46890;DHT22;32625;51.080;16.970;2023-04-24T01:50:31;12.50;99.90
46890;DHT22;32625;51.080;16.970;2023-04-24T01:52:58;12.50;99.90
46890;DHT22;32625;51.080;16.970;2023-04-24T01:55:25;12.50;99.90
46890;DHT22;32625;51.080;16.970;2023-04-24T01:57:55;12.50;99.90
46890;DHT22;32625;51.080;16.970;2023-04-24T02:00:23;12.50;99.90
46890;DHT22;32625;51.080;16.970;2023-04-24T02:02:52;12.50;99.90
46890;DHT22;32625;51.080;16.970;2023-04-24T02:05:20;12.40;99.90
46890;DHT22;32625;51.080;16.970;2023-04-24T02:07:47;12.40;99.90
46890;DHT22;32625;51.080;16.970;2023-04-24T02:10:14;12.40;99.90
46890;DHT22;32625;51.080;16.970;2023-04-24T02:12:42;12.40;99.90
46890;DHT22;32625;51.080;16.970;2023-04-24T02:15:09;12.40;99.90
46890;DHT22;32625;51.080;16.970;2023-04-24T02:17:37;12.40;99.90
46890;DHT22;32625;51.080;16.970;2023-04-24T02:20:06;12.40;99.90
46890;DHT22;32625;51.080;16.970;2023-04-24T02:22:33;12.30;99.90
46890;DHT22;32625;51.080;16.970;2023-04-24T02:25:01;12.30;99.90
46890;DHT22;32625;51.080;16.970;2023-04-24T02:27:28;12.40;99.90
46890;DHT22;32625;51.080;16.970;2023-04-24T02:29:56;12.40;99.90
46890;DHT22;32625;51.080;16.970;2023-04-24T02:32:23;12.30;99.90
46890;DHT22;32625;51.080;16.970;2023-04-24T02:34:50;12.30;99.90
46890;DHT22;32625;51.080;16.970;2023-04-24T02:37:18;12.40;99.90
46890;DHT22;32625;51.080;16.970;2023-04-24T02:39:45;12.40;99.90
46890;DHT22;32625;51.080;16.970;2023-04-24T02:42:12;12.40;99.90
46890;DHT22;32625;51.080;16.970;2023-04-24T02:44:39;12.40;99.90
46890;DHT22;32625;51.080;16.970;2023-04-24T02:47:07;12.40;99.90
46890;DHT22;32625;51.080;16.970;2023-04-24T02:49:35;12.40;99.90
46890;DHT22;32625;51.080;16.970;2023-04-24T02:52:02;12.40;99.90
46890;DHT22;32625;51.080;16.970;2023-04-24T02:54:30;12.40;99.90
46890;DHT22;32625;51.080;16.970;2023-04-24T02:56:57;12.30;99.90
46890;DHT22;32625;51.080;16.970;2023-04-24T02:59:24;12.30;99.90
46890;DHT22;32625;51.080;16.970;2023-04-24T03:01:54;12.30;99.90
46890;DHT22;32625;51.080;16.970;2023-04-24T03:04:21;12.30;99.90
46890;DHT22;32625;51.080;16.970;2023-04-24T03:06:49;12.30;99.90
46890;DHT22;32625;51.080;16.970;2023-04-24T03:09:20;12.30;99.90
46890;DHT22;32625;51.080;16.970;2023-04-24T03:11:47;12.30;99.90
46890;DHT22;32625;51.080;16.970;2023-04-24T03:14:16;12.30;99.90
46890;DHT22;32625;51.080;16.970;2023-04-24T03:16:43;12.20;99.90
46890;DHT22;32625;51.080;16.970;2023-04-24T03:19:10;12.20;99.90
46890;DHT22;32625;51.080;16.970;2023-04-24T03:21:46;12.20;99.90
46890;DHT22;32625;51.080;16.970;2023-04-24T03:24:13;12.20;99.90
46890;DHT22;32625;51.080;16.970;2023-04-24T03:26:40;12.20;99.90
46890;DHT22;32625;51.080;16.970;2023-04-24T03:29:24;12.20;99.90
46890;DHT22;32625;51.080;16.970;2023-04-24T03:31:53;12.20;99.90
46890;DHT22;32625;51.080;16.970;2023-04-24T03:34:21;12.10;99.90
46890;DHT22;32625;51.080;16.970;2023-04-24T03:36:48;12.10;99.90
46890;DHT22;32625;51.080;16.970;2023-04-24T03:39:15;12.10;99.90
46890;DHT22;32625;51.080;16.970;2023-04-24T03:41:50;12.20;99.90
46890;DHT22;32625;51.080;16.970;2023-04-24T03:44:22;12.10;99.90
46890;DHT22;32625;51.080;16.970;2023-04-24T03:46:50;12.10;99.90
46890;DHT22;32625;51.080;16.970;2023-04-24T03:49:20;12.10;99.90
46890;DHT22;32625;51.080;16.970;2023-04-24T03:51:48;12.10;99.90
46890;DHT22;32625;51.080;16.970;2023-04-24T03:54:24;12.10;99.90
46890;DHT22;32625;51.080;16.970;2023-04-24T03:56:52;12.10;99.90
46890;DHT22;32625;51.080;16.970;2023-04-24T03:59:22;12.00;99.90
46890;DHT22;32625;51.080;16.970;2023-04-24T04:02:03;12.00;99.90
46890;DHT22;32625;51.080;16.970;2023-04-24T04:04:31;11.80;99.90
46890;DHT22;32625;51.080;16.970;2023-04-24T04:06:59;11.80;99.90
46890;DHT22;32625;51.080;16.970;2023-04-24T04:09:35;11.80;99.90
46890;DHT22;32625;51.080;16.970;2023-04-24T04:12:02;11.70;99.90
46890;DHT22;32625;51.080;16.970;2023-04-24T04:14:32;11.70;99.90
46890;DHT22;32625;51.080;16.970;2023-04-24T04:17:00;11.70;99.90
46890;DHT22;32625;51.080;16.970;2023-04-24T04:19:27;11.70;99.90
46890;DHT22;32625;51.080;16.970;2023-04-24T04:21:55;11.60;99.90
46890;DHT22;32625;51.080;16.970;2023-04-24T04:24:52;11.60;99.90
46890;DHT22;32625;51.080;16.970;2023-04-24T04:27:24;11.50;99.90
46890;DHT22;32625;51.080;16.970;2023-04-24T04:29:59;11.60;99.90
46890;DHT22;32625;51.080;16.970;2023-04-24T04:32:41;11.60;99.90
46890;DHT22;32625;51.080;16.970;2023-04-24T04:35:08;11.60;99.90
46890;DHT22;32625;51.080;16.970;2023-04-24T04:37:36;11.60;99.90
46890;DHT22;32625;51.080;16.970;2023-04-24T04:40:18;11.70;99.90
46890;DHT22;32625;51.080;16.970;2023-04-24T04:42:56;11.70;99.90
46890;DHT22;32625;51.080;16.970;2023-04-24T04:45:26;11.70;99.90
46890;DHT22;32625;51.080;16.970;2023-04-24T04:48:12;11.80;99.90
46890;DHT22;32625;51.080;16.970;2023-04-24T04:50:41;11.80;99.90
46890;DHT22;32625;51.080;16.970;2023-04-24T04:53:09;11.80;99.90
46890;DHT22;32625;51.080;16.970;2023-04-24T04:55:38;11.80;99.90
46890;DHT22;32625;51.080;16.970;2023-04-24T04:58:09;11.90;99.90
46890;DHT22;32625;51.080;16.970;2023-04-24T05:00:37;11.90;99.90
46890;DHT22;32625;51.080;16.970;2023-04-24T05:03:27;11.90;99.90
46890;DHT22;32625;51.080;16.970;2023-04-24T05:05:59;12.00;99.90
46890;DHT22;32625;51.080;16.970;2023-04-24T05:08:28;12.10;99.90
46890;DHT22;32625;51.080;16.970;2023-04-24T05:10:55;12.10;99.90
46890;DHT22;32625;51.080;16.970;2023-04-24T05:13:25;12.10;99.90
46890;DHT22;32625;51.080;16.970;2023-04-24T05:16:09;12.10;99.90
46890;DHT22;32625;51.080;16.970;2023-04-24T05:18:37;12.20;99.90
46890;DHT22;32625;51.080;16.970;2023-04-24T05:21:07;12.20;99.90
46890;DHT22;32625;51.080;16.970;2023-04-24T05:23:35;12.30;99.90
46890;DHT22;32625;51.080;16.970;2023-04-24T05:26:02;12.40;99.90
46890;DHT22;32625;51.080;16.970;2023-04-24T05:28:35;12.50;99.90
46890;DHT22;32625;51.080;16.970;2023-04-24T05:31:07;12.50;99.90
46890;DHT22;32625;51.080;16.970;2023-04-24T05:33:35;12.60;99.90
46890;DHT22;32625;51.080;16.970;2023-04-24T05:36:03;12.60;99.90
46890;DHT22;32625;51.080;16.970;2023-04-24T05:38:30;12.70;99.90
46890;DHT22;32625;51.080;16.970;2023-04-24T05:40:59;12.70;99.90
46890;DHT22;32625;51.080;16.970;2023-04-24T05:43:27;12.80;99.90
46890;DHT22;32625;51.080;16.970;2023-04-24T05:45:54;12.90;99.90
46890;DHT22;32625;51.080;16.970;2023-04-24T05:48:22;13.00;99.90
46890;DHT22;32625;51.080;16.970;2023-04-24T05:50:49;13.00;99.90
46890;DHT22;32625;51.080;16.970;2023-04-24T05:53:17;13.00;99.90
46890;DHT22;32625;51.080;16.970;2023-04-24T05:55:45;13.10;99.90
46890;DHT22;32625;51.080;16.970;2023-04-24T05:58:12;13.10;99.90
46890;DHT22;32625;51.080;16.970;2023-04-24T06:00:39;13.20;99.90
46890;DHT22;32625;51.080;16.970;2023-04-24T06:03:09;13.20;99.90
46890;DHT22;32625;51.080;16.970;2023-04-24T06:05:37;13.20;99.90
46890;DHT22;32625;51.080;16.970;2023-04-24T06:08:04;13.30;99.90
46890;DHT22;32625;51.080;16.970;2023-04-24T06:10:35;13.20;99.90
46890;DHT22;32625;51.080;16.970;2023-04-24T06:13:04;13.30;99.90
46890;DHT22;32625;51.080;16.970;2023-04-24T06:15:33;13.30;99.90
46890;DHT22;32625;51.080;16.970;2023-04-24T06:18:09;13.40;99.90
46890;DHT22;32625;51.080;16.970;2023-04-24T06:20:41;13.40;99.90
46890;DHT22;32625;51.080;16.970;2023-04-24T06:23:09;13.40;99.90
46890;DHT22;32625;51.080;16.970;2023-04-24T06:25:36;13.40;99.90
46890;DHT22;32625;51.080;16.970;2023-04-24T06:28:04;13.50;99.90
46890;DHT22;32625;51.080;16.970;2023-04-24T06:30:32;13.50;99.90
46890;DHT22;32625;51.080;16.970;2023-04-24T06:32:59;13.70;99.90
46890;DHT22;32625;51.080;16.970;2023-04-24T06:35:47;13.70;99.90
46890;DHT22;32625;51.080;16.970;2023-04-24T06:38:14;13.80;99.90
46890;DHT22;32625;51.080;16.970;2023-04-24T06:40:43;13.90;99.90
46890;DHT22;32625;51.080;16.970;2023-04-24T06:43:10;13.90;99.90
46890;DHT22;32625;51.080;16.970;2023-04-24T06:45:38;13.90;99.90
46890;DHT22;32625;51.080;16.970;2023-04-24T06:48:06;13.90;99.90
46890;DHT22;32625;51.080;16.970;2023-04-24T06:50:34;13.90;99.90
46890;DHT22;32625;51.080;16.970;2023-04-24T06:53:01;14.00;99.90
46890;DHT22;32625;51.080;16.970;2023-04-24T06:55:28;14.10;99.90
46890;DHT22;32625;51.080;16.970;2023-04-24T06:57:58;14.10;99.90
46890;DHT22;32625;51.080;16.970;2023-04-24T07:00:25;14.20;99.90
46890;DHT22;32625;51.080;16.970;2023-04-24T07:02:53;14.40;99.90
46890;DHT22;32625;51.080;16.970;2023-04-24T07:05:20;14.50;99.90
46890;DHT22;32625;51.080;16.970;2023-04-24T07:07:47;14.60;99.90
46890;DHT22;32625;51.080;16.970;2023-04-24T07:10:15;14.60;99.90
46890;DHT22;32625;51.080;16.970;2023-04-24T07:12:43;14.70;99.90
46890;DHT22;32625;51.080;16.970;2023-04-24T07:15:10;14.80;99.90
46890;DHT22;32625;51.080;16.970;2023-04-24T07:17:37;14.80;99.90
46890;DHT22;32625;51.080;16.970;2023-04-24T07:20:05;14.80;99.90
46890;DHT22;32625;51.080;16.970;2023-04-24T07:22:37;14.90;99.90
46890;DHT22;32625;51.080;16.970;2023-04-24T07:25:04;14.80;99.90
46890;DHT22;32625;51.080;16.970;2023-04-24T07:27:32;14.80;99.90
46890;DHT22;32625;51.080;16.970;2023-04-24T07:29:59;14.80;99.90
46890;DHT22;32625;51.080;16.970;2023-04-24T07:32:26;14.80;99.90
46890;DHT22;32625;51.080;16.970;2023-04-24T07:34:53;14.90;99.90
46890;DHT22;32625;51.080;16.970;2023-04-24T07:37:20;14.90;99.90
46890;DHT22;32625;51.080;16.970;2023-04-24T07:39:48;14.90;99.90
46890;DHT22;32625;51.080;16.970;2023-04-24T07:42:15;14.90;99.90
46890;DHT22;32625;51.080;16.970;2023-04-24T07:44:42;15.00;99.90
46890;DHT22;32625;51.080;16.970;2023-04-24T07:47:09;15.20;99.90
46890;DHT22;32625;51.080;16.970;2023-04-24T07:49:37;15.30;99.90
46890;DHT22;32625;51.080;16.970;2023-04-24T07:52:05;15.40;99.90
46890;DHT22;32625;51.080;16.970;2023-04-24T07:54:32;15.50;99.90
46890;DHT22;32625;51.080;16.970;2023-04-24T07:56:59;15.60;99.90
46890;DHT22;32625;51.080;16.970;2023-04-24T07:59:27;15.70;99.90
46890;DHT22;32625;51.080;16.970;2023-04-24T08:01:54;15.70;99.90
46890;DHT22;32625;51.080;16.970;2023-04-24T08:04:21;15.70;99.90
46890;DHT22;32625;51.080;16.970;2023-04-24T08:06:49;15.70;99.90
46890;DHT22;32625;51.080;16.970;2023-04-24T08:09:16;15.60;99.90
46890;DHT22;32625;51.080;16.970;2023-04-24T08:11:43;15.60;99.90
46890;DHT22;32625;51.080;16.970;2023-04-24T08:14:11;15.60;99.90
46890;DHT22;32625;51.080;16.970;2023-04-24T08:16:40;15.50;99.90
46890;DHT22;32625;51.080;16.970;2023-04-24T08:19:08;15.40;99.90
46890;DHT22;32625;51.080;16.970;2023-04-24T08:21:35;15.30;99.90
46890;DHT22;32625;51.080;16.970;2023-04-24T08:24:02;15.40;99.90
46890;DHT22;32625;51.080;16.970;2023-04-24T08:26:32;15.40;99.90
46890;DHT22;32625;51.080;16.970;2023-04-24T08:28:59;15.40;99.90
46890;DHT22;32625;51.080;16.970;2023-04-24T08:31:26;15.40;99.90
46890;DHT22;32625;51.080;16.970;2023-04-24T08:33:53;15.40;99.90
46890;DHT22;32625;51.080;16.970;2023-04-24T08:36:21;15.30;99.90
46890;DHT22;32625;51.080;16.970;2023-04-24T08:38:58;15.30;99.90
46890;DHT22;32625;51.080;16.970;2023-04-24T08:41:27;15.20;99.90
46890;DHT22;32625;51.080;16.970;2023-04-24T08:43:55;15.20;99.90
46890;DHT22;32625;51.080;16.970;2023-04-24T08:46:25;15.10;99.90
46890;DHT22;32625;51.080;16.970;2023-04-24T08:48:53;15.10;99.90
46890;DHT22;32625;51.080;16.970;2023-04-24T08:51:20;15.10;99.90
46890;DHT22;32625;51.080;16.970;2023-04-24T08:53:48;15.00;99.90
46890;DHT22;32625;51.080;16.970;2023-04-24T08:56:16;15.10;99.90
46890;DHT22;32625;51.080;16.970;2023-04-24T08:58:44;15.00;99.90
46890;DHT22;32625;51.080;16.970;2023-04-24T09:01:12;15.10;99.90
46890;DHT22;32625;51.080;16.970;2023-04-24T09:03:39;15.00;99.90
46890;DHT22;32625;51.080;16.970;2023-04-24T09:06:08;15.10;99.90
46890;DHT22;32625;51.080;16.970;2023-04-24T09:08:36;15.20;99.90
46890;DHT22;32625;51.080;16.970;2023-04-24T09:11:03;15.30;99.90
46890;DHT22;32625;51.080;16.970;2023-04-24T09:13:32;15.40;99.90
46890;DHT22;32625;51.080;16.970;2023-04-24T09:16:00;15.40;99.90
46890;DHT22;32625;51.080;16.970;2023-04-24T09:18:27;15.50;99.90
46890;DHT22;32625;51.080;16.970;2023-04-24T09:21:06;15.80;99.90
46890;DHT22;32625;51.080;16.970;2023-04-24T09:23:34;15.90;99.90
46890;DHT22;32625;51.080;16.970;2023-04-24T09:26:02;15.90;99.90
46890;DHT22;32625;51.080;16.970;2023-04-24T09:28:36;15.90;99.90
46890;DHT22;32625;51.080;16.970;2023-04-24T09:31:19;15.90;99.90
46890;DHT22;32625;51.080;16.970;2023-04-24T09:34:02;15.80;99.90
46890;DHT22;32625;51.080;16.970;2023-04-24T09:36:39;15.90;99.90
46890;DHT22;32625;51.080;16.970;2023-04-24T09:39:13;15.90;99.90
46890;DHT22;32625;51.080;16.970;2023-04-24T09:41:50;16.00;99.90
46890;DHT22;32625;51.080;16.970;2023-04-24T09:44:21;16.00;99.90
46890;DHT22;32625;51.080;16.970;2023-04-24T09:46:51;16.00;99.90
46890;DHT22;32625;51.080;16.970;2023-04-24T09:49:26;16.00;99.90
46890;DHT22;32625;51.080;16.970;2023-04-24T09:52:10;15.90;99.90
46890;DHT22;32625;51.080;16.970;2023-04-24T09:54:38;16.00;99.90
46890;DHT22;32625;51.080;16.970;2023-04-24T09:57:07;15.90;99.90
46890;DHT22;32625;51.080;16.970;2023-04-24T09:59:34;15.90;99.90
46890;DHT22;32625;51.080;16.970;2023-04-24T10:02:03;15.80;99.90
46890;DHT22;32625;51.080;16.970;2023-04-24T10:04:54;15.80;99.90
46890;DHT22;32625;51.080;16.970;2023-04-24T10:07:26;15.80;99.90
46890;DHT22;32625;51.080;16.970;2023-04-24T10:09:54;15.80;99.90
46890;DHT22;32625;51.080;16.970;2023-04-24T10:12:23;15.90;99.90
46890;DHT22;32625;51.080;16.970;2023-04-24T10:14:52;16.00;99.90
46890;DHT22;32625;51.080;16.970;2023-04-24T10:17:20;15.90;99.90
46890;DHT22;32625;51.080;16.970;2023-04-24T10:19:49;16.00;99.90
46890;DHT22;32625;51.080;16.970;2023-04-24T10:22:17;15.90;99.90
46890;DHT22;32625;51.080;16.970;2023-04-24T10:24:45;15.80;99.90
46890;DHT22;32625;51.080;16.970;2023-04-24T10:27:14;15.70;99.90
46890;DHT22;32625;51.080;16.970;2023-04-24T10:29:43;15.70;99.90
46890;DHT22;32625;51.080;16.970;2023-04-24T10:32:11;15.60;99.90
46890;DHT22;32625;51.080;16.970;2023-04-24T10:34:39;15.70;99.90
46890;DHT22;32625;51.080;16.970;2023-04-24T10:37:06;15.80;99.90
46890;DHT22;32625;51.080;16.970;2023-04-24T10:39:33;15.90;99.90
46890;DHT22;32625;51.080;16.970;2023-04-24T10:42:02;16.00;99.90
46890;DHT22;32625;51.080;16.970;2023-04-24T10:44:40;16.10;99.90
46890;DHT22;32625;51.080;16.970;2023-04-24T10:47:13;16.30;99.90
46890;DHT22;32625;51.080;16.970;2023-04-24T10:49:41;16.40;99.90
46890;DHT22;32625;51.080;16.970;2023-04-24T10:52:09;16.50;99.90
46890;DHT22;32625;51.080;16.970;2023-04-24T10:54:42;16.50;99.90
46890;DHT22;32625;51.080;16.970;2023-04-24T10:59:52;16.60;99.90
46890;DHT22;32625;51.080;16.970;2023-04-24T11:02:37;16.70;99.90
46890;DHT22;32625;51.080;16.970;2023-04-24T11:05:06;16.60;99.90
46890;DHT22;32625;51.080;16.970;2023-04-24T11:11:10;16.30;99.90
46890;DHT22;32625;51.080;16.970;2023-04-24T11:16:27;16.10;99.90
46890;DHT22;32625;51.080;16.970;2023-04-24T11:19:08;16.20;99.90
46890;DHT22;32625;51.080;16.970;2023-04-24T11:24:25;16.30;99.90
46890;DHT22;32625;51.080;16.970;2023-04-24T11:27:16;16.40;99.90
46890;DHT22;32625;51.080;16.970;2023-04-24T11:37:37;17.40;99.90
46890;DHT22;32625;51.080;16.970;2023-04-24T11:40:06;17.60;99.90
46890;DHT22;32625;51.080;16.970;2023-04-24T11:42:38;17.80;99.90
46890;DHT22;32625;51.080;16.970;2023-04-24T11:45:20;17.90;99.90
46890;DHT22;32625;51.080;16.970;2023-04-24T11:47:48;18.00;99.90
46890;DHT22;32625;51.080;16.970;2023-04-24T11:50:18;18.10;99.90
46890;DHT22;32625;51.080;16.970;2023-04-24T11:52:47;18.00;99.90
46890;DHT22;32625;51.080;16.970;2023-04-24T11:57:46;17.90;99.90
46890;DHT22;32625;51.080;16.970;2023-04-24T12:02:44;17.80;99.90
46890;DHT22;32625;51.080;16.970;2023-04-24T12:05:24;17.60;99.90
46890;DHT22;32625;51.080;16.970;2023-04-24T12:07:53;17.40;99.90
46890;DHT22;32625;51.080;16.970;2023-04-24T12:10:25;17.20;99.90
46890;DHT22;32625;51.080;16.970;2023-04-24T12:12:53;17.00;99.90
46890;DHT22;32625;51.080;16.970;2023-04-24T12:15:21;16.90;99.90
46890;DHT22;32625;51.080;16.970;2023-04-24T12:17:52;16.70;99.90
46890;DHT22;32625;51.080;16.970;2023-04-24T12:20:28;16.60;99.90
46890;DHT22;32625;51.080;16.970;2023-04-24T12:23:00;16.50;99.90
46890;DHT22;32625;51.080;16.970;2023-04-24T12:25:31;16.50;99.90
46890;DHT22;32625;51.080;16.970;2023-04-24T12:30:44;16.40;99.90
46890;DHT22;32625;51.080;16.970;2023-04-24T12:33:19;16.40;99.90
46890;DHT22;32625;51.080;16.970;2023-04-24T12:35:48;16.30;99.90
46890;DHT22;32625;51.080;16.970;2023-04-24T12:38:22;16.30;99.90
46890;DHT22;32625;51.080;16.970;2023-04-24T12:41:04;16.20;99.90
46890;DHT22;32625;51.080;16.970;2023-04-24T12:43:32;16.10;99.90
46890;DHT22;32625;51.080;16.970;2023-04-24T12:45:59;16.10;99.90
46890;DHT22;32625;51.080;16.970;2023-04-24T12:48:27;16.10;99.90
46890;DHT22;32625;51.080;16.970;2023-04-24T12:50:54;16.00;99.90
46890;DHT22;32625;51.080;16.970;2023-04-24T12:53:23;15.90;99.90
46890;DHT22;32625;51.080;16.970;2023-04-24T12:55:53;15.80;99.90
46890;DHT22;32625;51.080;16.970;2023-04-24T12:58:20;15.80;99.90
46890;DHT22;32625;51.080;16.970;2023-04-24T13:00:47;15.60;99.90
46890;DHT22;32625;51.080;16.970;2023-04-24T13:03:15;15.40;99.90
46890;DHT22;32625;51.080;16.970;2023-04-24T13:05:43;15.30;99.90
46890;DHT22;32625;51.080;16.970;2023-04-24T13:08:10;15.30;99.90
46890;DHT22;32625;51.080;16.970;2023-04-24T13:10:40;15.20;99.90
46890;DHT22;32625;51.080;16.970;2023-04-24T13:13:08;15.10;99.90
46890;DHT22;32625;51.080;16.970;2023-04-24T13:15:35;14.90;99.90
46890;DHT22;32625;51.080;16.970;2023-04-24T13:18:03;14.90;99.90
46890;DHT22;32625;51.080;16.970;2023-04-24T13:20:30;14.80;99.90
46890;DHT22;32625;51.080;16.970;2023-04-24T13:22:57;14.80;99.90
46890;DHT22;32625;51.080;16.970;2023-04-24T13:25:25;14.70;99.90
46890;DHT22;32625;51.080;16.970;2023-04-24T13:27:53;14.60;99.90
46890;DHT22;32625;51.080;16.970;2023-04-24T13:30:20;14.60;99.90
46890;DHT22;32625;51.080;16.970;2023-04-24T13:32:47;14.60;99.90
46890;DHT22;32625;51.080;16.970;2023-04-24T13:35:14;14.60;99.90
46890;DHT22;32625;51.080;16.970;2023-04-24T13:37:42;14.40;99.90
46890;DHT22;32625;51.080;16.970;2023-04-24T13:40:09;14.40;99.90
46890;DHT22;32625;51.080;16.970;2023-04-24T13:42:36;14.30;99.90
46890;DHT22;32625;51.080;16.970;2023-04-24T13:45:04;14.20;99.90
46890;DHT22;32625;51.080;16.970;2023-04-24T13:47:50;14.20;99.90
46890;DHT22;32625;51.080;16.970;2023-04-24T13:50:18;14.20;99.90
46890;DHT22;32625;51.080;16.970;2023-04-24T13:52:45;14.20;99.90
46890;DHT22;32625;51.080;16.970;2023-04-24T13:55:12;14.20;99.90
46890;DHT22;32625;51.080;16.970;2023-04-24T13:57:40;14.10;99.90
46890;DHT22;32625;51.080;16.970;2023-04-24T14:00:08;14.10;99.90
46890;DHT22;32625;51.080;16.970;2023-04-24T14:02:37;14.10;99.90
46890;DHT22;32625;51.080;16.970;2023-04-24T14:05:05;14.00;99.90
46890;DHT22;32625;51.080;16.970;2023-04-24T14:07:33;14.00;99.90
46890;DHT22;32625;51.080;16.970;2023-04-24T14:10:00;14.00;99.90
46890;DHT22;32625;51.080;16.970;2023-04-24T14:12:28;13.90;99.90
46890;DHT22;32625;51.080;16.970;2023-04-24T14:14:55;13.80;99.90
46890;DHT22;32625;51.080;16.970;2023-04-24T14:17:22;13.80;99.90
46890;DHT22;32625;51.080;16.970;2023-04-24T14:19:49;13.80;99.90
46890;DHT22;32625;51.080;16.970;2023-04-24T14:22:18;13.80;99.90
46890;DHT22;32625;51.080;16.970;2023-04-24T14:24:45;13.70;99.90
46890;DHT22;32625;51.080;16.970;2023-04-24T14:27:13;13.80;99.90
46890;DHT22;32625;51.080;16.970;2023-04-24T14:29:40;13.70;99.90
46890;DHT22;32625;51.080;16.970;2023-04-24T14:32:07;13.70;99.90
46890;DHT22;32625;51.080;16.970;2023-04-24T14:34:35;13.70;99.90
46890;DHT22;32625;51.080;16.970;2023-04-24T14:37:03;13.70;99.90
46890;DHT22;32625;51.080;16.970;2023-04-24T14:39:30;13.70;99.90
46890;DHT22;32625;51.080;16.970;2023-04-24T14:41:57;13.60;99.90
46890;DHT22;32625;51.080;16.970;2023-04-24T14:44:24;13.60;99.90
46890;DHT22;32625;51.080;16.970;2023-04-24T14:46:52;13.60;99.90
46890;DHT22;32625;51.080;16.970;2023-04-24T14:49:20;13.60;99.90
46890;DHT22;32625;51.080;16.970;2023-04-24T14:51:47;13.70;99.90
46890;DHT22;32625;51.080;16.970;2023-04-24T14:54:14;13.60;99.90
46890;DHT22;32625;51.080;16.970;2023-04-24T14:56:41;13.60;99.90
46890;DHT22;32625;51.080;16.970;2023-04-24T14:59:10;13.50;99.90
46890;DHT22;32625;51.080;16.970;2023-04-24T15:01:37;13.40;99.90
46890;DHT22;32625;51.080;16.970;2023-04-24T15:04:04;13.30;99.90
46890;DHT22;32625;51.080;16.970;2023-04-24T15:06:32;13.30;99.90
46890;DHT22;32625;51.080;16.970;2023-04-24T15:08:59;13.20;99.90
46890;DHT22;32625;51.080;16.970;2023-04-24T15:11:27;13.30;99.90
46890;DHT22;32625;51.080;16.970;2023-04-24T15:13:55;13.30;99.90
46890;DHT22;32625;51.080;16.970;2023-04-24T15:16:23;13.30;99.90
46890;DHT22;32625;51.080;16.970;2023-04-24T15:18:51;13.30;99.90
46890;DHT22;32625;51.080;16.970;2023-04-24T15:21:18;13.30;99.90
46890;DHT22;32625;51.080;16.970;2023-04-24T15:23:45;13.30;99.90
46890;DHT22;32625;51.080;16.970;2023-04-24T15:26:13;13.30;99.90
46890;DHT22;32625;51.080;16.970;2023-04-24T15:28:40;13.30;99.90
46890;DHT22;32625;51.080;16.970;2023-04-24T15:31:07;13.30;99.90
46890;DHT22;32625;51.080;16.970;2023-04-24T15:33:34;13.30;99.90
46890;DHT22;32625;51.080;16.970;2023-04-24T15:36:02;13.30;99.90
46890;DHT22;32625;51.080;16.970;2023-04-24T15:38:32;13.30;99.90
46890;DHT22;32625;51.080;16.970;2023-04-24T15:40:59;13.30;99.90
46890;DHT22;32625;51.080;16.970;2023-04-24T15:43:26;13.30;99.90
46890;DHT22;32625;51.080;16.970;2023-04-24T15:45:57;13.30;99.90
46890;DHT22;32625;51.080;16.970;2023-04-24T15:48:24;13.30;99.90
46890;DHT22;32625;51.080;16.970;2023-04-24T15:50:51;13.20;99.90
46890;DHT22;32625;51.080;16.970;2023-04-24T15:53:18;13.20;99.90
46890;DHT22;32625;51.080;16.970;2023-04-24T15:55:49;13.20;99.90